sensor_id;sensor_type;location;lat;lon;timestamp;P1;P2;P0
72307;PMS5003;60257;42.638;23.376;2023-05-14T00:00:13;9.67;9.67;6.00
72307;PMS5003;60257;42.638;23.376;2023-05-14T00:02:39;12.33;12.33;8.00
72307;PMS5003;60257;42.638;23.376;2023-05-14T00:05:05;12.33;12.33;9.00
72307;PMS5003;60257;42.638;23.376;2023-05-14T00:07:31;11.67;9.33;7.67
72307;PMS5003;60257;42.638;23.376;2023-05-14T00:09:57;13.33;11.33;8.33
72307;PMS5003;60257;42.638;23.376;2023-05-14T00:12:23;10.00;10.00;8.33
72307;PMS5003;60257;42.638;23.376;2023-05-14T00:14:48;13.67;12.33;8.33
72307;PMS5003;60257;42.638;23.376;2023-05-14T00:17:14;8.67;8.67;8.00
72307;PMS5003;60257;42.638;23.376;2023-05-14T00:19:39;12.67;12.67;7.00
72307;PMS5003;60257;42.638;23.376;2023-05-14T00:22:09;15.67;14.67;9.33
72307;PMS5003;60257;42.638;23.376;2023-05-14T00:24:35;14.33;14.33;8.67
72307;PMS5003;60257;42.638;23.376;2023-05-14T00:27:01;12.67;12.67;8.00
72307;PMS5003;60257;42.638;23.376;2023-05-14T00:29:27;7.33;6.33;2.67
72307;PMS5003;60257;42.638;23.376;2023-05-14T00:31:52;15.33;15.00;8.00
72307;PMS5003;60257;42.638;23.376;2023-05-14T00:34:18;11.33;10.00;7.00
72307;PMS5003;60257;42.638;23.376;2023-05-14T00:36:43;13.00;13.00;10.00
72307;PMS5003;60257;42.638;23.376;2023-05-14T00:39:09;17.00;15.00;9.33
72307;PMS5003;60257;42.638;23.376;2023-05-14T00:41:34;11.67;11.67;8.67
72307;PMS5003;60257;42.638;23.376;2023-05-14T00:44:00;14.00;14.00;9.00
72307;PMS5003;60257;42.638;23.376;2023-05-14T00:46:26;11.33;11.33;7.00
72307;PMS5003;60257;42.638;23.376;2023-05-14T00:48:52;12.00;10.33;7.00
72307;PMS5003;60257;42.638;23.376;2023-05-14T00:51:17;13.00;13.00;9.00
72307;PMS5003;60257;42.638;23.376;2023-05-14T00:53:44;14.67;14.00;9.00
72307;PMS5003;60257;42.638;23.376;2023-05-14T00:56:10;12.00;12.00;6.33
72307;PMS5003;60257;42.638;23.376;2023-05-14T00:58:36;13.67;13.67;8.00
72307;PMS5003;60257;42.638;23.376;2023-05-14T01:01:02;14.67;14.67;9.67
72307;PMS5003;60257;42.638;23.376;2023-05-14T01:03:28;13.67;11.00;8.00
72307;PMS5003;60257;42.638;23.376;2023-05-14T01:11:25;10.00;10.00;8.00
72307;PMS5003;60257;42.638;23.376;2023-05-14T01:14:16;13.00;13.00;6.33
72307;PMS5003;60257;42.638;23.376;2023-05-14T01:16:51;13.00;11.00;6.67
72307;PMS5003;60257;42.638;23.376;2023-05-14T01:19:22;10.00;9.00;7.00
72307;PMS5003;60257;42.638;23.376;2023-05-14T01:21:57;11.00;11.00;7.00
72307;PMS5003;60257;42.638;23.376;2023-05-14T01:24:22;10.00;8.00;6.00
72307;PMS5003;60257;42.638;23.376;2023-05-14T01:26:48;11.00;11.00;6.00
72307;PMS5003;60257;42.638;23.376;2023-05-14T01:29:15;12.67;10.67;7.00
72307;PMS5003;60257;42.638;23.376;2023-05-14T01:31:46;15.00;14.00;7.67
72307;PMS5003;60257;42.638;23.376;2023-05-14T01:34:14;11.00;11.00;9.00
72307;PMS5003;60257;42.638;23.376;2023-05-14T01:36:40;10.33;10.33;6.67
72307;PMS5003;60257;42.638;23.376;2023-05-14T01:39:07;7.67;7.67;7.00
72307;PMS5003;60257;42.638;23.376;2023-05-14T01:41:34;13.00;13.00;7.00
72307;PMS5003;60257;42.638;23.376;2023-05-14T01:44:01;14.00;11.33;8.00
72307;PMS5003;60257;42.638;23.376;2023-05-14T01:46:31;11.67;9.00;7.00
72307;PMS5003;60257;42.638;23.376;2023-05-14T01:48:57;10.00;9.00;7.00
72307;PMS5003;60257;42.638;23.376;2023-05-14T01:51:22;10.00;9.00;7.00
72307;PMS5003;60257;42.638;23.376;2023-05-14T01:53:48;11.67;11.67;6.00
72307;PMS5003;60257;42.638;23.376;2023-05-14T01:56:13;12.75;11.75;6.75
72307;PMS5003;60257;42.638;23.376;2023-05-14T01:58:39;8.00;8.00;5.33
72307;PMS5003;60257;42.638;23.376;2023-05-14T02:01:04;10.33;10.00;6.33
72307;PMS5003;60257;42.638;23.376;2023-05-14T02:03:30;9.67;9.67;6.67
72307;PMS5003;60257;42.638;23.376;2023-05-14T02:05:55;11.33;10.33;7.00
72307;PMS5003;60257;42.638;23.376;2023-05-14T02:08:21;11.67;11.67;7.00
72307;PMS5003;60257;42.638;23.376;2023-05-14T02:10:46;11.67;11.67;7.00
72307;PMS5003;60257;42.638;23.376;2023-05-14T02:13:12;17.00;15.00;9.33
72307;PMS5003;60257;42.638;23.376;2023-05-14T02:15:37;11.00;11.00;5.67
72307;PMS5003;60257;42.638;23.376;2023-05-14T02:18:02;9.33;9.33;6.33
72307;PMS5003;60257;42.638;23.376;2023-05-14T02:20:28;9.00;8.33;7.00
72307;PMS5003;60257;42.638;23.376;2023-05-14T02:22:54;12.00;12.00;8.67
72307;PMS5003;60257;42.638;23.376;2023-05-14T02:25:19;13.00;13.00;8.67
72307;PMS5003;60257;42.638;23.376;2023-05-14T02:27:44;12.33;12.33;8.00
72307;PMS5003;60257;42.638;23.376;2023-05-14T02:30:10;11.33;11.33;7.00
72307;PMS5003;60257;42.638;23.376;2023-05-14T02:32:36;12.00;12.00;7.00
72307;PMS5003;60257;42.638;23.376;2023-05-14T02:35:02;8.33;8.33;6.00
72307;PMS5003;60257;42.638;23.376;2023-05-14T02:37:27;12.00;11.00;6.67
72307;PMS5003;60257;42.638;23.376;2023-05-14T02:39:53;11.00;10.00;5.67
72307;PMS5003;60257;42.638;23.376;2023-05-14T02:42:18;8.33;8.33;7.00
72307;PMS5003;60257;42.638;23.376;2023-05-14T02:44:44;9.67;9.67;7.00
72307;PMS5003;60257;42.638;23.376;2023-05-14T02:47:09;10.67;8.00;4.00
72307;PMS5003;60257;42.638;23.376;2023-05-14T02:49:34;13.67;12.00;8.33
72307;PMS5003;60257;42.638;23.376;2023-05-14T02:52:00;13.00;10.00;6.33
72307;PMS5003;60257;42.638;23.376;2023-05-14T02:54:25;12.33;12.33;8.00
72307;PMS5003;60257;42.638;23.376;2023-05-14T02:56:51;9.33;9.33;6.67
72307;PMS5003;60257;42.638;23.376;2023-05-14T02:59:16;13.00;13.00;7.67
72307;PMS5003;60257;42.638;23.376;2023-05-14T03:01:42;12.33;10.33;8.33
72307;PMS5003;60257;42.638;23.376;2023-05-14T03:04:08;11.33;11.33;7.33
72307;PMS5003;60257;42.638;23.376;2023-05-14T03:06:33;12.00;11.67;7.33
72307;PMS5003;60257;42.638;23.376;2023-05-14T03:08:58;11.00;11.00;7.00
72307;PMS5003;60257;42.638;23.376;2023-05-14T03:11:24;8.33;5.00;3.33
72307;PMS5003;60257;42.638;23.376;2023-05-14T03:13:49;9.33;7.33;5.00
72307;PMS5003;60257;42.638;23.376;2023-05-14T03:16:15;13.00;11.67;7.33
72307;PMS5003;60257;42.638;23.376;2023-05-14T03:18:41;10.67;10.33;6.00
72307;PMS5003;60257;42.638;23.376;2023-05-14T03:21:06;11.67;11.00;6.67
72307;PMS5003;60257;42.638;23.376;2023-05-14T03:23:33;14.67;13.00;7.33
72307;PMS5003;60257;42.638;23.376;2023-05-14T03:25:59;13.33;13.33;7.67
72307;PMS5003;60257;42.638;23.376;2023-05-14T03:28:25;14.67;14.00;10.00
72307;PMS5003;60257;42.638;23.376;2023-05-14T03:30:50;11.00;11.00;6.67
72307;PMS5003;60257;42.638;23.376;2023-05-14T03:33:16;12.00;12.00;9.33
72307;PMS5003;60257;42.638;23.376;2023-05-14T03:35:42;14.00;13.00;10.00
72307;PMS5003;60257;42.638;23.376;2023-05-14T03:38:07;14.00;14.00;9.33
72307;PMS5003;60257;42.638;23.376;2023-05-14T03:40:33;16.33;13.67;9.33
72307;PMS5003;60257;42.638;23.376;2023-05-14T03:42:58;12.67;12.33;7.67
72307;PMS5003;60257;42.638;23.376;2023-05-14T03:45:24;16.33;13.33;10.67
72307;PMS5003;60257;42.638;23.376;2023-05-14T03:47:50;10.00;10.00;6.00
72307;PMS5003;60257;42.638;23.376;2023-05-14T03:50:16;14.67;13.67;9.67
72307;PMS5003;60257;42.638;23.376;2023-05-14T03:52:41;14.00;12.33;8.33
72307;PMS5003;60257;42.638;23.376;2023-05-14T03:55:08;14.33;12.33;8.33
72307;PMS5003;60257;42.638;23.376;2023-05-14T03:57:34;14.33;12.00;9.00
72307;PMS5003;60257;42.638;23.376;2023-05-14T04:00:00;14.67;14.67;10.00
72307;PMS5003;60257;42.638;23.376;2023-05-14T04:02:26;8.33;8.33;5.33
72307;PMS5003;60257;42.638;23.376;2023-05-14T04:04:51;13.67;13.67;10.00
72307;PMS5003;60257;42.638;23.376;2023-05-14T04:07:17;14.00;13.00;9.00
72307;PMS5003;60257;42.638;23.376;2023-05-14T04:09:42;10.00;10.00;7.00
72307;PMS5003;60257;42.638;23.376;2023-05-14T04:12:08;12.33;12.33;8.67
72307;PMS5003;60257;42.638;23.376;2023-05-14T04:14:33;7.00;7.00;3.67
72307;PMS5003;60257;42.638;23.376;2023-05-14T04:16:59;12.00;12.00;7.67
72307;PMS5003;60257;42.638;23.376;2023-05-14T04:19:25;14.00;14.00;10.00
72307;PMS5003;60257;42.638;23.376;2023-05-14T04:21:50;15.00;12.00;8.33
72307;PMS5003;60257;42.638;23.376;2023-05-14T04:24:15;12.67;12.67;7.00
72307;PMS5003;60257;42.638;23.376;2023-05-14T04:26:41;15.33;15.00;7.67
72307;PMS5003;60257;42.638;23.376;2023-05-14T04:29:07;12.33;12.33;6.67
72307;PMS5003;60257;42.638;23.376;2023-05-14T04:31:32;8.33;8.33;5.67
72307;PMS5003;60257;42.638;23.376;2023-05-14T04:33:57;15.33;12.67;9.33
72307;PMS5003;60257;42.638;23.376;2023-05-14T04:36:23;15.00;12.67;9.00
72307;PMS5003;60257;42.638;23.376;2023-05-14T04:38:48;11.00;11.00;8.33
72307;PMS5003;60257;42.638;23.376;2023-05-14T04:41:14;13.67;13.67;8.33
72307;PMS5003;60257;42.638;23.376;2023-05-14T04:43:40;13.00;13.00;9.00
72307;PMS5003;60257;42.638;23.376;2023-05-14T04:46:05;13.67;13.67;9.67
72307;PMS5003;60257;42.638;23.376;2023-05-14T04:48:31;14.00;12.33;9.33
72307;PMS5003;60257;42.638;23.376;2023-05-14T04:50:56;15.33;14.33;10.00
72307;PMS5003;60257;42.638;23.376;2023-05-14T04:53:22;17.00;14.00;10.00
72307;PMS5003;60257;42.638;23.376;2023-05-14T04:55:48;11.00;10.00;6.00
72307;PMS5003;60257;42.638;23.376;2023-05-14T04:58:13;13.00;13.00;10.00
72307;PMS5003;60257;42.638;23.376;2023-05-14T05:00:39;9.67;9.67;6.00
72307;PMS5003;60257;42.638;23.376;2023-05-14T05:03:05;11.00;11.00;9.00
72307;PMS5003;60257;42.638;23.376;2023-05-14T05:05:30;13.00;13.00;7.00
72307;PMS5003;60257;42.638;23.376;2023-05-14T05:07:55;12.00;12.00;8.00
72307;PMS5003;60257;42.638;23.376;2023-05-14T05:10:21;9.67;9.67;7.00
72307;PMS5003;60257;42.638;23.376;2023-05-14T05:12:47;12.33;12.33;6.00
72307;PMS5003;60257;42.638;23.376;2023-05-14T05:15:12;15.33;15.33;9.67
72307;PMS5003;60257;42.638;23.376;2023-05-14T05:17:37;15.00;15.00;10.00
72307;PMS5003;60257;42.638;23.376;2023-05-14T05:20:03;15.67;13.33;9.67
72307;PMS5003;60257;42.638;23.376;2023-05-14T05:22:32;13.67;13.00;9.00
72307;PMS5003;60257;42.638;23.376;2023-05-14T05:24:57;15.67;15.67;9.00
72307;PMS5003;60257;42.638;23.376;2023-05-14T05:27:23;12.00;12.00;9.00
72307;PMS5003;60257;42.638;23.376;2023-05-14T05:29:50;14.00;14.00;9.33
72307;PMS5003;60257;42.638;23.376;2023-05-14T05:32:15;19.00;17.00;11.00
72307;PMS5003;60257;42.638;23.376;2023-05-14T05:34:41;15.67;14.00;10.00
72307;PMS5003;60257;42.638;23.376;2023-05-14T05:37:06;12.00;12.00;7.67
72307;PMS5003;60257;42.638;23.376;2023-05-14T05:39:33;17.33;16.67;10.67
72307;PMS5003;60257;42.638;23.376;2023-05-14T05:41:59;16.67;16.67;11.00
72307;PMS5003;60257;42.638;23.376;2023-05-14T05:44:26;13.33;13.33;9.67
72307;PMS5003;60257;42.638;23.376;2023-05-14T05:46:52;19.33;16.67;8.00
72307;PMS5003;60257;42.638;23.376;2023-05-14T05:49:20;12.33;12.33;9.00
72307;PMS5003;60257;42.638;23.376;2023-05-14T05:51:45;14.67;14.00;9.33
72307;PMS5003;60257;42.638;23.376;2023-05-14T05:54:11;17.67;17.67;11.00
72307;PMS5003;60257;42.638;23.376;2023-05-14T05:56:36;17.33;17.33;11.00
72307;PMS5003;60257;42.638;23.376;2023-05-14T05:59:01;17.33;17.33;12.00
72307;PMS5003;60257;42.638;23.376;2023-05-14T06:01:28;18.00;18.00;12.00
72307;PMS5003;60257;42.638;23.376;2023-05-14T06:03:53;18.00;18.00;14.33
72307;PMS5003;60257;42.638;23.376;2023-05-14T06:06:19;13.33;13.33;9.67
72307;PMS5003;60257;42.638;23.376;2023-05-14T06:08:45;16.67;16.67;12.00
72307;PMS5003;60257;42.638;23.376;2023-05-14T06:11:11;30.00;29.33;19.00
72307;PMS5003;60257;42.638;23.376;2023-05-14T06:13:36;20.33;20.33;12.33
72307;PMS5003;60257;42.638;23.376;2023-05-14T06:16:02;18.00;17.67;11.67
72307;PMS5003;60257;42.638;23.376;2023-05-14T06:18:27;20.00;20.00;12.00
72307;PMS5003;60257;42.638;23.376;2023-05-14T06:20:53;18.67;18.67;12.33
72307;PMS5003;60257;42.638;23.376;2023-05-14T06:23:20;17.33;15.33;9.67
72307;PMS5003;60257;42.638;23.376;2023-05-14T06:25:48;16.67;16.67;11.00
72307;PMS5003;60257;42.638;23.376;2023-05-14T06:28:14;20.67;20.33;11.67
72307;PMS5003;60257;42.638;23.376;2023-05-14T06:30:39;18.00;16.00;9.00
72307;PMS5003;60257;42.638;23.376;2023-05-14T06:33:05;15.33;15.33;10.00
72307;PMS5003;60257;42.638;23.376;2023-05-14T06:35:31;17.33;17.33;11.00
72307;PMS5003;60257;42.638;23.376;2023-05-14T06:37:58;15.33;15.33;9.67
72307;PMS5003;60257;42.638;23.376;2023-05-14T06:40:24;19.33;15.33;9.00
72307;PMS5003;60257;42.638;23.376;2023-05-14T06:42:50;15.67;15.33;11.00
72307;PMS5003;60257;42.638;23.376;2023-05-14T06:45:15;19.00;18.00;12.33
72307;PMS5003;60257;42.638;23.376;2023-05-14T06:47:40;16.33;14.67;9.00
72307;PMS5003;60257;42.638;23.376;2023-05-14T06:50:06;17.00;17.00;11.00
72307;PMS5003;60257;42.638;23.376;2023-05-14T06:52:32;14.00;14.00;8.00
72307;PMS5003;60257;42.638;23.376;2023-05-14T06:54:57;12.00;12.00;9.00
72307;PMS5003;60257;42.638;23.376;2023-05-14T06:57:23;13.33;13.00;9.67
72307;PMS5003;60257;42.638;23.376;2023-05-14T06:59:49;50.67;43.00;27.33
72307;PMS5003;60257;42.638;23.376;2023-05-14T07:02:14;22.00;19.67;14.00
72307;PMS5003;60257;42.638;23.376;2023-05-14T07:04:39;21.00;21.00;13.67
72307;PMS5003;60257;42.638;23.376;2023-05-14T07:07:05;17.00;17.00;13.00
72307;PMS5003;60257;42.638;23.376;2023-05-14T07:09:30;28.33;22.33;14.33
72307;PMS5003;60257;42.638;23.376;2023-05-14T07:11:56;19.67;19.67;12.00
72307;PMS5003;60257;42.638;23.376;2023-05-14T07:14:21;24.67;24.67;15.67
72307;PMS5003;60257;42.638;23.376;2023-05-14T07:16:47;24.00;24.00;17.00
72307;PMS5003;60257;42.638;23.376;2023-05-14T07:19:12;32.33;31.67;20.33
72307;PMS5003;60257;42.638;23.376;2023-05-14T07:21:38;31.33;30.00;19.00
72307;PMS5003;60257;42.638;23.376;2023-05-14T07:24:03;26.00;24.67;14.00
72307;PMS5003;60257;42.638;23.376;2023-05-14T07:26:29;31.33;29.67;19.00
72307;PMS5003;60257;42.638;23.376;2023-05-14T07:28:55;25.67;22.67;15.33
72307;PMS5003;60257;42.638;23.376;2023-05-14T07:31:21;21.33;21.33;17.00
72307;PMS5003;60257;42.638;23.376;2023-05-14T07:33:46;30.67;27.33;16.33
72307;PMS5003;60257;42.638;23.376;2023-05-14T07:36:12;26.67;26.67;17.67
72307;PMS5003;60257;42.638;23.376;2023-05-14T07:38:38;23.33;22.00;14.33
72307;PMS5003;60257;42.638;23.376;2023-05-14T07:41:03;22.33;22.33;14.00
72307;PMS5003;60257;42.638;23.376;2023-05-14T07:43:29;19.33;18.00;13.00
72307;PMS5003;60257;42.638;23.376;2023-05-14T07:45:55;18.67;18.67;11.33
72307;PMS5003;60257;42.638;23.376;2023-05-14T07:48:20;14.33;13.00;12.00
72307;PMS5003;60257;42.638;23.376;2023-05-14T07:50:47;19.33;19.33;13.67
72307;PMS5003;60257;42.638;23.376;2023-05-14T07:53:12;18.00;18.00;12.33
72307;PMS5003;60257;42.638;23.376;2023-05-14T07:55:38;22.00;20.67;15.00
72307;PMS5003;60257;42.638;23.376;2023-05-14T07:58:03;21.00;21.00;15.33
72307;PMS5003;60257;42.638;23.376;2023-05-14T08:00:29;25.00;21.67;15.00
72307;PMS5003;60257;42.638;23.376;2023-05-14T08:02:54;24.00;21.67;13.33
72307;PMS5003;60257;42.638;23.376;2023-05-14T08:05:20;21.67;20.33;13.67
72307;PMS5003;60257;42.638;23.376;2023-05-14T08:07:45;19.67;19.67;12.33
72307;PMS5003;60257;42.638;23.376;2023-05-14T08:10:11;20.33;19.00;14.00
72307;PMS5003;60257;42.638;23.376;2023-05-14T08:12:36;24.33;23.67;18.00
72307;PMS5003;60257;42.638;23.376;2023-05-14T08:15:03;18.33;18.00;13.00
72307;PMS5003;60257;42.638;23.376;2023-05-14T08:17:29;20.67;19.67;14.33
72307;PMS5003;60257;42.638;23.376;2023-05-14T08:19:55;24.33;23.00;14.33
72307;PMS5003;60257;42.638;23.376;2023-05-14T08:22:20;17.33;17.33;12.67
72307;PMS5003;60257;42.638;23.376;2023-05-14T08:24:46;21.33;21.33;12.33
72307;PMS5003;60257;42.638;23.376;2023-05-14T08:27:11;22.67;20.67;15.00
72307;PMS5003;60257;42.638;23.376;2023-05-14T08:29:37;22.67;22.67;13.00
72307;PMS5003;60257;42.638;23.376;2023-05-14T08:32:02;25.00;25.00;18.67
72307;PMS5003;60257;42.638;23.376;2023-05-14T08:34:29;34.67;28.67;17.67
72307;PMS5003;60257;42.638;23.376;2023-05-14T08:36:54;12.33;12.33;9.00
72307;PMS5003;60257;42.638;23.376;2023-05-14T08:39:20;21.00;19.67;13.33
72307;PMS5003;60257;42.638;23.376;2023-05-14T08:41:46;22.00;22.00;15.00
72307;PMS5003;60257;42.638;23.376;2023-05-14T08:44:13;21.00;21.00;15.00
72307;PMS5003;60257;42.638;23.376;2023-05-14T08:46:40;22.00;22.00;14.00
72307;PMS5003;60257;42.638;23.376;2023-05-14T08:51:42;21.33;21.33;13.33
72307;PMS5003;60257;42.638;23.376;2023-05-14T08:54:11;21.00;18.00;12.00
72307;PMS5003;60257;42.638;23.376;2023-05-14T08:56:40;19.33;18.67;13.00
72307;PMS5003;60257;42.638;23.376;2023-05-14T08:59:09;17.00;15.00;11.33
72307;PMS5003;60257;42.638;23.376;2023-05-14T09:01:36;21.33;21.33;13.67
72307;PMS5003;60257;42.638;23.376;2023-05-14T09:04:03;22.33;22.33;14.00
72307;PMS5003;60257;42.638;23.376;2023-05-14T09:06:34;18.00;17.00;12.00
72307;PMS5003;60257;42.638;23.376;2023-05-14T09:09:02;26.33;23.00;17.00
72307;PMS5003;60257;42.638;23.376;2023-05-14T09:11:28;23.67;23.33;16.00
72307;PMS5003;60257;42.638;23.376;2023-05-14T09:13:53;18.67;18.67;10.00
72307;PMS5003;60257;42.638;23.376;2023-05-14T09:16:19;18.33;17.33;13.33
72307;PMS5003;60257;42.638;23.376;2023-05-14T09:18:45;17.67;17.33;12.67
72307;PMS5003;60257;42.638;23.376;2023-05-14T09:21:14;20.00;19.00;11.67
72307;PMS5003;60257;42.638;23.376;2023-05-14T09:23:43;20.33;19.67;12.33
72307;PMS5003;60257;42.638;23.376;2023-05-14T09:26:09;22.33;21.33;13.67
72307;PMS5003;60257;42.638;23.376;2023-05-14T09:28:35;23.00;20.33;13.33
72307;PMS5003;60257;42.638;23.376;2023-05-14T09:31:04;20.33;20.33;13.33
72307;PMS5003;60257;42.638;23.376;2023-05-14T09:33:30;18.33;18.33;13.33
72307;PMS5003;60257;42.638;23.376;2023-05-14T09:36:00;16.33;16.33;12.33
72307;PMS5003;60257;42.638;23.376;2023-05-14T09:38:27;21.00;20.67;13.67
72307;PMS5003;60257;42.638;23.376;2023-05-14T09:40:59;19.00;19.00;14.00
72307;PMS5003;60257;42.638;23.376;2023-05-14T09:43:24;25.00;23.67;16.67
72307;PMS5003;60257;42.638;23.376;2023-05-14T09:45:51;16.33;16.33;12.00
72307;PMS5003;60257;42.638;23.376;2023-05-14T09:48:17;17.33;15.33;11.67
72307;PMS5003;60257;42.638;23.376;2023-05-14T09:50:44;22.33;22.33;16.00
72307;PMS5003;60257;42.638;23.376;2023-05-14T09:53:11;18.00;18.00;12.00
72307;PMS5003;60257;42.638;23.376;2023-05-14T09:55:38;18.00;18.00;13.00
72307;PMS5003;60257;42.638;23.376;2023-05-14T09:58:04;14.33;14.33;11.00
72307;PMS5003;60257;42.638;23.376;2023-05-14T10:00:33;15.67;13.67;10.00
72307;PMS5003;60257;42.638;23.376;2023-05-14T10:03:02;17.33;17.33;12.00
72307;PMS5003;60257;42.638;23.376;2023-05-14T10:05:31;14.00;12.67;11.00
72307;PMS5003;60257;42.638;23.376;2023-05-14T10:08:47;12.67;12.67;9.00
72307;PMS5003;60257;42.638;23.376;2023-05-14T10:10:52;14.00;13.67;10.00
72307;PMS5003;60257;42.638;23.376;2023-05-14T10:13:22;14.67;14.67;10.33
72307;PMS5003;60257;42.638;23.376;2023-05-14T10:15:56;14.33;14.33;11.33
72307;PMS5003;60257;42.638;23.376;2023-05-14T10:18:30;13.33;13.33;10.00
72307;PMS5003;60257;42.638;23.376;2023-05-14T10:21:03;13.00;13.00;8.67
72307;PMS5003;60257;42.638;23.376;2023-05-14T10:23:30;17.67;17.67;13.00
72307;PMS5003;60257;42.638;23.376;2023-05-14T10:25:56;18.00;18.00;12.00
72307;PMS5003;60257;42.638;23.376;2023-05-14T10:28:23;23.67;22.00;16.00
72307;PMS5003;60257;42.638;23.376;2023-05-14T10:30:49;22.67;21.33;16.00
72307;PMS5003;60257;42.638;23.376;2023-05-14T10:33:15;22.67;21.67;15.00
72307;PMS5003;60257;42.638;23.376;2023-05-14T10:38:28;23.67;23.67;14.67
72307;PMS5003;60257;42.638;23.376;2023-05-14T10:41:00;22.00;20.67;15.00
72307;PMS5003;60257;42.638;23.376;2023-05-14T10:43:37;18.00;17.33;12.00
72307;PMS5003;60257;42.638;23.376;2023-05-14T10:46:04;13.00;13.00;8.67
72307;PMS5003;60257;42.638;23.376;2023-05-14T10:48:31;14.33;14.33;10.00
72307;PMS5003;60257;42.638;23.376;2023-05-14T10:50:57;16.67;16.00;11.00
72307;PMS5003;60257;42.638;23.376;2023-05-14T10:53:33;12.33;12.00;9.33
72307;PMS5003;60257;42.638;23.376;2023-05-14T10:56:10;14.00;13.00;11.00
72307;PMS5003;60257;42.638;23.376;2023-05-14T10:58:37;12.33;10.00;9.00
72307;PMS5003;60257;42.638;23.376;2023-05-14T11:01:05;20.00;17.00;12.67
72307;PMS5003;60257;42.638;23.376;2023-05-14T11:03:37;17.33;17.33;12.00
72307;PMS5003;60257;42.638;23.376;2023-05-14T11:06:17;13.00;12.67;10.00
72307;PMS5003;60257;42.638;23.376;2023-05-14T11:08:42;16.67;15.33;11.00
72307;PMS5003;60257;42.638;23.376;2023-05-14T11:11:08;14.00;14.00;11.00
72307;PMS5003;60257;42.638;23.376;2023-05-14T11:13:34;15.67;13.67;10.33
72307;PMS5003;60257;42.638;23.376;2023-05-14T11:16:01;14.00;13.00;11.00
72307;PMS5003;60257;42.638;23.376;2023-05-14T11:21:00;18.00;18.00;11.00
72307;PMS5003;60257;42.638;23.376;2023-05-14T11:23:27;15.67;15.67;11.00
72307;PMS5003;60257;42.638;23.376;2023-05-14T11:25:52;17.00;17.00;12.33
72307;PMS5003;60257;42.638;23.376;2023-05-14T11:28:19;17.00;16.67;13.00
72307;PMS5003;60257;42.638;23.376;2023-05-14T11:30:46;15.33;13.67;10.00
72307;PMS5003;60257;42.638;23.376;2023-05-14T11:33:12;24.67;24.67;16.33
72307;PMS5003;60257;42.638;23.376;2023-05-14T11:35:38;23.67;22.00;16.00
72307;PMS5003;60257;42.638;23.376;2023-05-14T11:38:03;26.33;22.33;13.33
72307;PMS5003;60257;42.638;23.376;2023-05-14T11:40:29;21.00;21.00;15.00
72307;PMS5003;60257;42.638;23.376;2023-05-14T11:42:54;19.00;17.33;12.67
72307;PMS5003;60257;42.638;23.376;2023-05-14T11:45:24;22.67;22.67;14.33
72307;PMS5003;60257;42.638;23.376;2023-05-14T11:47:51;24.67;24.00;13.00
72307;PMS5003;60257;42.638;23.376;2023-05-14T11:50:18;30.67;30.00;20.00
72307;PMS5003;60257;42.638;23.376;2023-05-14T11:52:43;28.67;28.67;19.33
72307;PMS5003;60257;42.638;23.376;2023-05-14T11:55:09;23.00;23.00;15.00
72307;PMS5003;60257;42.638;23.376;2023-05-14T11:57:36;23.00;23.00;17.00
72307;PMS5003;60257;42.638;23.376;2023-05-14T12:00:02;22.00;20.33;14.00
72307;PMS5003;60257;42.638;23.376;2023-05-14T12:02:30;21.67;21.67;14.00
72307;PMS5003;60257;42.638;23.376;2023-05-14T12:04:55;18.33;17.33;14.00
72307;PMS5003;60257;42.638;23.376;2023-05-14T12:07:21;18.00;16.00;10.33
72307;PMS5003;60257;42.638;23.376;2023-05-14T12:09:47;17.00;16.00;13.67
72307;PMS5003;60257;42.638;23.376;2023-05-14T12:12:14;16.67;16.67;10.67
72307;PMS5003;60257;42.638;23.376;2023-05-14T12:14:45;17.33;17.33;11.33
72307;PMS5003;60257;42.638;23.376;2023-05-14T12:17:13;17.67;17.67;12.67
72307;PMS5003;60257;42.638;23.376;2023-05-14T12:19:40;18.00;18.00;13.33
72307;PMS5003;60257;42.638;23.376;2023-05-14T12:22:07;19.33;17.00;11.00
72307;PMS5003;60257;42.638;23.376;2023-05-14T12:24:34;19.00;19.00;13.00
72307;PMS5003;60257;42.638;23.376;2023-05-14T12:27:00;20.67;19.67;13.33
72307;PMS5003;60257;42.638;23.376;2023-05-14T12:29:26;17.00;17.00;13.00
72307;PMS5003;60257;42.638;23.376;2023-05-14T12:31:52;20.67;19.67;14.00
72307;PMS5003;60257;42.638;23.376;2023-05-14T12:34:17;19.33;18.67;12.00
72307;PMS5003;60257;42.638;23.376;2023-05-14T12:36:43;15.00;15.00;10.75
72307;PMS5003;60257;42.638;23.376;2023-05-14T12:39:09;18.00;18.00;12.67
72307;PMS5003;60257;42.638;23.376;2023-05-14T12:41:36;20.00;19.00;12.00
72307;PMS5003;60257;42.638;23.376;2023-05-14T12:44:02;21.67;21.67;14.67
72307;PMS5003;60257;42.638;23.376;2023-05-14T12:46:28;18.50;16.25;11.50
72307;PMS5003;60257;42.638;23.376;2023-05-14T12:48:54;11.75;11.75;7.25
72307;PMS5003;60257;42.638;23.376;2023-05-14T12:51:21;23.67;21.67;15.00
72307;PMS5003;60257;42.638;23.376;2023-05-14T12:53:47;18.67;18.33;12.00
72307;PMS5003;60257;42.638;23.376;2023-05-14T12:56:12;21.33;21.00;14.33
72307;PMS5003;60257;42.638;23.376;2023-05-14T12:58:38;22.67;22.00;17.00
72307;PMS5003;60257;42.638;23.376;2023-05-14T13:01:04;23.00;23.00;16.67
72307;PMS5003;60257;42.638;23.376;2023-05-14T13:03:30;23.33;21.67;15.00
72307;PMS5003;60257;42.638;23.376;2023-05-14T13:05:55;21.67;20.67;12.00
72307;PMS5003;60257;42.638;23.376;2023-05-14T13:08:21;20.00;20.00;15.00
72307;PMS5003;60257;42.638;23.376;2023-05-14T13:10:52;25.00;24.67;16.00
72307;PMS5003;60257;42.638;23.376;2023-05-14T13:13:18;24.33;23.00;14.33
72307;PMS5003;60257;42.638;23.376;2023-05-14T13:15:44;21.33;21.33;15.33
72307;PMS5003;60257;42.638;23.376;2023-05-14T13:18:14;20.67;20.67;15.33
72307;PMS5003;60257;42.638;23.376;2023-05-14T13:20:40;24.33;23.67;17.00
72307;PMS5003;60257;42.638;23.376;2023-05-14T13:23:06;28.00;27.67;18.33
72307;PMS5003;60257;42.638;23.376;2023-05-14T13:25:32;26.00;25.33;14.33
72307;PMS5003;60257;42.638;23.376;2023-05-14T13:27:57;23.33;23.33;15.00
72307;PMS5003;60257;42.638;23.376;2023-05-14T13:30:23;20.00;18.67;11.00
72307;PMS5003;60257;42.638;23.376;2023-05-14T13:32:48;28.67;27.33;17.00
72307;PMS5003;60257;42.638;23.376;2023-05-14T13:35:14;23.00;21.00;16.67
72307;PMS5003;60257;42.638;23.376;2023-05-14T13:37:41;31.00;29.00;18.33
72307;PMS5003;60257;42.638;23.376;2023-05-14T13:40:07;28.00;27.00;17.33
72307;PMS5003;60257;42.638;23.376;2023-05-14T13:42:34;24.33;24.33;18.00
72307;PMS5003;60257;42.638;23.376;2023-05-14T13:45:00;28.67;28.00;18.00
72307;PMS5003;60257;42.638;23.376;2023-05-14T13:47:26;32.00;30.67;19.00
72307;PMS5003;60257;42.638;23.376;2023-05-14T13:49:52;31.33;31.00;19.00